Central Sonoma County Latest

37 Stations

15 Minute Data
as of 5/2/26 10:05 PM PDT
Station Date Time Temp (°F) RH (%) Dew Pt (°F) Wind Spd (mph) Wind Dir (°) Wind Gust (mph) Latest Rain (In) Daily Rain (In) Daily Max Temp (°F) Daily Min Temp (°F)
Windsor-NW (Ranch 8) 5/2/26 2200 54.8   2.1 82   0 49.5   1.9 1.7   0.3 SSE | 166 4.6   0.4 0.00 0.00 63.8   12.1 52.2   2.1
Windsor-East (Ranch 16) 5/2/26 2130 54.9   0.3 78   9 48.2   2.6 3.3   0.7 SSE | 150 6.0   1.4 0.00 0.00 62.1   13.6 52.3   4.3
Mark West-North (Ranch 14) 5/2/26 2200 54.5   1.5 79   11 48.3   2.1 1.9   0.7 NNW | 328 4.0   1.8 0.00 0.00 61.4   12.9 52.6   2.0
Windsor-SE (Silk Rd) 5/2/26 2200 55.2   2.2 81   13 49.5   1.9 1.4   0.6 SE | 131 3.7   2.2 0.00 0.00 62.4   12.2 52.3   3.4
Fulton-NW (Ranch 5) 5/2/26 2200 54.3   1.4 83   10 49.2   1.7 2.3   1.6 ESE | 104 4.8   2.6 0.00 0.00 62.0   12.6 52.6   2.7
Bisordi (Fulton) 5/2/26 2200 54.6   1.0 83   6 49.7   1.1 1.2   0.8 SSE | 162 3.2   3.4 0.00 0.00 61.4   13.1 52.9   3.0
Windsor-South (Laughlin Rd) 2/28/26 0515 55.4   5.1 92   7 53.2   3.1 - - - 0.00 0.00 61.9   7.4 55.2   5.6
Fulton-SE (Barnes Rd) 5/2/26 2200 55.1   0.6 79   8 48.7   2.1 1.9   1.2 SSE | 159 4.7   2.8 0.00 0.00 61.2   13.1 52.9   1.3
Fulton-SW (Ranch 21) 5/2/26 2200 54.0   1.4 82   10 48.8   1.8 2.4   3.1 SSE | 168 4.9   4.2 0.00 0.00 61.3   11.8 52.1   2.0
NW Santa Rosa (Piner Road) 5/2/26 2200 54.2   1.3 92   8 51.9   1.0 1.1   2.2 SSE | 150 3.2   3.7 0.00 0.00 60.4   12.6 52.2   1.2
River Rd South (Denner Ranch) 5/2/26 2200 54.3   2.6 83   83 49.3   115.9 0.5   4.9 SE | 142 2.0   6.6 - - 61.8   10.9 51.4   2.1
West Santa Rosa (LOV Vineyard) 5/2/26 2200 54.4   1.8 81   12 48.7   2.1 1.1   0.1 S | 178 3.1   1.3 0.00 0.00 61.1   10.9 52.2   1.5
Guerneville Rd (Prokopakis) 5/2/26 2200 55.5   2.5 80   14 49.4   1.9 - - - 0.00 0.00 66.9   10.9 52.8   1.8
SunnyView Vineyard (SCWC) 5/2/26 2200 54.0   1.4 81   11 48.4   1.9 0.7   1.6 SE | 136 3.2   2.6 0.00 0.00 61.6   11.4 52.0   1.6
Guerneville Rd West (Balletto) 5/2/26 2200 54.7   1.8 85   11 50.2   1.4 1.4   2.5 S | 171 2.5   4.9 0.00 0.00 61.0   11.1 52.5   1.9
Sanchietti Ranch 5/2/26 2200 55.4   1.3 84   8 50.7   1.0 1.7   2.9 S | 183 3.3   4.6 0.00 0.00 62.7   11.1 53.5   1.9
Occidental Rd (Sebastopol) 5/2/26 2200 54.0   2.4 100   0 54.0   2.4 0.3   1.2 SSE | 168 1.8   2.6 0.00 0.00 61.6   10.7 51.8   2.9
Harper's Rest (Windsor-West) 5/2/26 2200 53.2   1.9 82   11 47.8   1.6 0.8   1.3 ESE | 103 2.9   2.0 0.00 0.00 62.6   13.1 50.6   4.1
Lower Westside Rd (Ranch 12) 5/2/26 2200 54.5   1.6 81   10 48.9   1.7 1.4   0.5 SSE | 164 4.1   0.1 0.00 0.00 64.3   12.1 52.0   3.5
Guerneville (Laughlin Rd) 5/2/26 2200 54.3   0.8 83   9 49.2   1.9 1.1   1.1 ESE | 112 2.3   1.6 0.00 0.00 64.2   12.1 52.4   4.4
Korbel (Winery) 5/2/26 2200 54.8   0.2 82   6 49.5   2.2 0.0   0.0 N | 0 0.0   0.0 0.00 0.00 62.9   14.2 52.5   2.2
Forestville (Shone Farms) 5/2/26 2200 54.7   1.8 80   13 48.8   2.1 1.3   1.3 SSW | 193 4.1   1.5 0.00 0.00 63.8   12.7 50.6   1.8
Forestville-NE (Ranch 30) 5/2/26 2200 53.9   1.7 85   10 49.6   1.2 2.3   0.1 SSW | 210 4.5   0.3 0.00 0.00 64.1   11.1 51.4   3.0
Foggy Bend (Ranch 41) 5/2/26 2200 55.2   1.9 82   10 49.7   1.1 1.4   0.1 SW | 216 3.0   0.6 0.00 0.00 64.4   10.7 52.6   2.6
Last Stop 5/2/26 2200 54.3   2.9 84   8 49.7   0.4 0.1   1.4 SSW | 200 1.8   1.2 0.00 0.00 63.2   11.1 51.6   5.5
Green Valley Vineyard 5/2/26 2200 53.4   2.0 85   10 48.9   1.0 0.8   0.5 S | 189 2.4   0.2 0.00 0.00 61.8   11.2 50.6   2.7
Park Royal 5/2/26 2200 54.2   1.2 80   10 48.4   2.0 - - - 0.00 0.00 61.4   12.3 52.5   1.2
Merino 5/2/26 2200 54.0   1.1 87   8 50.3   1.4 1.6   1.6 SSE | 164 2.9   2.6 0.00 0.00 61.6   11.1 52.4   1.9
Green Valley (Sanchietti) 5/2/26 2200 55.2   2.3 - - - - - - - 64.5   10.6 52.1   5.6
Keefer Ranch (Green Valley) 5/2/26 2200 54.5   3.4 84   9 49.6   0.5 - - - 0.00 0.00 62.7   9.9 52.0   5.3
Graton-West (Dutton Ranch) 5/2/26 2200 54.6   1.7 100   0 54.7   1.7 0.4   0.5 SW | 216 1.7   0.3 0.00 0.00 62.7   11.3 52.0   3.6
Graton-South (Mill Station Rd) 5/2/26 2200 53.8   2.0 83   11 48.9   1.4 0.0   0.8 N | 0 0.0   3.0 0.00 0.00 59.9   8.9 51.6   6.5
Occidental (Horseshoe Bend) 5/2/26 2200 51.4   1.4 90   8 48.6   0.9 - - - 0.00 0.01 57.7   9.8 49.5   2.3
Sexton Valley (Jacqueline's Blk) 5/2/26 2200 53.9   1.5 86   9 49.7   1.2 1.0   0.3 SSW | 205 3.2   0.0 0.00 0.00 60.2   8.5 51.9   6.3
Sebastopol Hills (Burnside Rd) 5/2/26 2200 51.8   1.1 92   6 49.7   0.7 2.3   0.1 WSW | 237 3.8   1.1 0.00 0.00 57.1   7.6 50.3   1.4
Pleasant Hill 5/2/26 2200 52.3   1.5 87   9 48.6   1.1 2.3   0.1 WSW | 238 5.1   0.3 0.00 0.00 58.9   11.5 50.7   5.5
Seaview/Fort Ross (Hirsch) 5/2/26 2200 47.4   11.0 97   36 46.6   1.7 1.4   0.3 WNW | 293 2.9   0.3 0.00 0.00 57.6   9.9 46.6   5.0
Max     55.5 100 54.7 3.3 - 6.0 0.00 0.01 66.9 53.5
Avg     54.0 85 49.5 1.3 - 3.2 0.00 - - -
Min     47.4 78 46.6 0.0 - 0.0 0.00 0.00 57.1 46.6